Time;durP1;ratioP1;P1;durP2;ratioP2;P2;SDS_P1;SDS_P2;PMS_P1;PMS_P2;Temp;Humidity;BMP_temperature;BMP_pressure;BME280_temperature;BME280_humidity;BME280_pressure;Samples;Min_cycle;Max_cycle;Signal;HPM_P1;HPM_P2
2023/05/05 00:00:56;;;;;;;10.23;4.55;;;10.70;99.90;;;;;;5064259;28;20124;-74
2023/05/05 00:03:23;;;;;;;12.93;4.85;;;10.70;99.90;;;;;;5047622;28;20032;-74
2023/05/05 00:05:56;;;;;;;11.45;4.90;;;10.70;99.90;;;;;;5063456;28;20091;-74
2023/05/05 00:08:22;;;;;;;;;;;10.70;99.90;;;;;;5065960;28;20059;-74
2023/05/05 00:10:49;;;;;;;12.27;4.53;;;10.60;99.90;;;;;;5061974;28;19916;-75
2023/05/05 00:13:16;;;;;;;10.73;4.70;;;10.60;99.90;;;;;;5072424;28;20048;-74
2023/05/05 00:15:44;;;;;;;12.05;4.72;;;10.60;99.90;;;;;;5063315;28;20043;-74
2023/05/05 00:18:10;;;;;;;14.35;4.90;;;10.60;99.90;;;;;;5053213;28;20294;-74
2023/05/05 00:20:36;;;;;;;11.98;4.90;;;10.50;99.90;;;;;;5068274;28;20062;-74
2023/05/05 00:23:02;;;;;;;13.60;4.93;;;10.50;99.90;;;;;;5063610;28;20028;-74
2023/05/05 00:25:28;;;;;;;15.95;4.95;;;10.50;99.90;;;;;;5062707;28;20121;-74
2023/05/05 00:27:54;;;;;;;13.02;4.72;;;10.40;99.90;;;;;;5064066;28;20039;-74
2023/05/05 00:30:20;;;;;;;11.60;4.93;;;10.40;99.90;;;;;;5061581;28;20162;-75
2023/05/05 00:32:49;;;;;;;12.93;4.85;;;10.40;99.90;;;;;;5051109;28;20064;-74
2023/05/05 00:35:16;;;;;;;10.38;4.82;;;10.40;99.90;;;;;;5046397;28;20092;-74
2023/05/05 00:37:42;;;;;;;11.10;4.80;;;10.30;99.90;;;;;;5050823;28;20032;-74
2023/05/05 00:40:09;;;;;;;14.38;5.28;;;10.30;99.90;;;;;;5063515;28;20163;-74
2023/05/05 00:42:46;;;;;;;10.10;4.55;;;10.30;99.90;;;;;;5062655;28;20032;-74
2023/05/05 00:45:14;;;;;;;13.15;5.00;;;10.30;99.90;;;;;;5081085;28;20099;-75
2023/05/05 00:47:52;;;;;;;13.05;4.97;;;10.30;99.90;;;;;;5080240;28;20024;-74
2023/05/05 00:50:23;;;;;;;12.13;5.13;;;10.30;99.90;;;;;;5054743;28;20274;-74
2023/05/05 00:52:51;;;;;;;12.90;4.93;;;10.30;99.90;;;;;;5066974;28;20170;-75
2023/05/05 00:55:17;;;;;;;12.25;5.15;;;10.30;99.90;;;;;;5061943;28;20028;-74
2023/05/05 00:57:44;;;;;;;14.32;5.32;;;10.20;99.90;;;;;;5064906;28;20032;-74
2023/05/05 01:00:10;;;;;;;12.02;4.88;;;10.20;99.90;;;;;;5064134;28;20281;-74
2023/05/05 01:02:37;;;;;;;12.98;5.05;;;10.20;99.90;;;;;;5051328;28;20042;-74
2023/05/05 01:05:03;;;;;;;14.98;5.50;;;10.20;99.90;;;;;;5065594;28;20029;-74
2023/05/05 01:07:47;;;;;;;12.70;4.93;;;10.10;99.90;;;;;;5063160;28;20036;-74
2023/05/05 01:10:22;;;;;;;11.57;4.80;;;10.10;99.90;;;;;;5046960;28;20032;-74
2023/05/05 01:12:56;;;;;;;20.58;5.90;;;10.10;99.90;;;;;;5059192;28;20036;-74
2023/05/05 01:15:28;;;;;;;15.05;5.22;;;10.10;99.90;;;;;;5062753;28;20082;-74
2023/05/05 01:18:06;;;;;;;12.77;5.18;;;10.10;99.90;;;;;;5053598;28;20031;-74
2023/05/05 01:20:47;;;;;;;10.68;5.07;;;10.00;99.90;;;;;;5084433;28;20055;-74
2023/05/05 01:23:35;;;;;;;10.52;5.18;;;10.00;99.90;;;;;;5065664;28;20033;-74
2023/05/05 01:26:20;;;;;;;10.65;4.72;;;10.00;99.90;;;;;;5066193;28;20206;-74
2023/05/05 01:29:05;;;;;;;11.23;5.25;;;10.00;99.90;;;;;;5069329;28;20078;-74
2023/05/05 01:31:41;;;;;;;12.27;5.18;;;10.00;99.90;;;;;;5052617;28;20032;-74
2023/05/05 01:34:13;;;;;;;14.88;5.25;;;10.00;99.90;;;;;;5065824;28;20150;-74
2023/05/05 01:36:43;;;;;;;12.27;5.25;;;9.90;99.90;;;;;;5062204;28;20044;-74
2023/05/05 01:39:14;;;;;;;12.40;5.13;;;9.90;99.90;;;;;;5063316;28;20059;-74
2023/05/05 01:41:47;;;;;;;15.25;5.18;;;9.90;99.90;;;;;;5079084;28;20044;-74
2023/05/05 01:44:14;;;;;;;;;;;9.90;99.90;;;;;;5063017;28;20083;-74
2023/05/05 01:46:40;;;;;;;13.90;5.40;;;9.80;99.90;;;;;;5063143;28;19955;-74
2023/05/05 01:49:07;;;;;;;12.25;4.90;;;9.80;99.90;;;;;;5069976;28;20032;-75
2023/05/05 01:51:34;;;;;;;12.50;5.25;;;9.80;99.90;;;;;;5074944;28;20078;-74
2023/05/05 01:54:03;;;;;;;10.88;4.78;;;9.80;99.90;;;;;;5064133;28;20036;-74
2023/05/05 01:56:30;;;;;;;12.38;5.43;;;9.80;99.90;;;;;;5065159;28;20074;-74
2023/05/05 01:58:57;;;;;;;12.25;5.32;;;9.80;99.90;;;;;;5066672;28;20062;-75
2023/05/05 02:01:25;;;;;;;15.40;5.68;;;9.80;99.90;;;;;;5067688;28;20048;-75
2023/05/05 02:03:55;;;;;;;12.65;5.00;;;9.80;99.90;;;;;;5055718;28;20027;-74
2023/05/05 02:06:22;;;;;;;15.73;5.57;;;9.80;99.90;;;;;;5049739;28;20179;-74
2023/05/05 02:08:50;;;;;;;12.77;5.78;;;9.80;99.90;;;;;;5054179;28;20024;-74
2023/05/05 02:11:16;;;;;;;15.27;5.40;;;9.80;99.90;;;;;;5073600;28;20016;-74
2023/05/05 02:13:43;;;;;;;11.35;5.05;;;9.80;99.90;;;;;;5070177;28;20055;-74
2023/05/05 02:16:10;;;;;;;11.27;4.82;;;9.80;99.90;;;;;;5067959;28;20299;-74
2023/05/05 02:18:37;;;;;;;14.27;5.40;;;9.80;99.90;;;;;;5067772;28;20040;-74
2023/05/05 02:21:03;;;;;;;11.50;4.78;;;9.80;99.90;;;;;;5065593;28;20217;-74
2023/05/05 02:23:30;;;;;;;12.30;5.35;;;9.80;99.90;;;;;;5068823;28;20096;-74
2023/05/05 02:26:04;;;;;;;13.60;5.65;;;9.80;99.90;;;;;;5054874;28;20066;-74
2023/05/05 02:28:41;;;;;;;12.55;5.25;;;9.80;99.90;;;;;;5068076;28;20036;-74
2023/05/05 02:31:09;;;;;;;13.50;5.30;;;9.80;99.90;;;;;;5067357;28;20031;-74
2023/05/05 02:33:36;;;;;;;12.75;5.30;;;9.70;99.90;;;;;;5070683;28;20071;-74
2023/05/05 02:36:12;;;;;;;13.07;5.10;;;9.70;99.90;;;;;;5081429;28;20059;-74
2023/05/05 02:38:41;;;;;;;14.52;5.85;;;9.70;99.90;;;;;;5063848;28;20287;-74
2023/05/05 02:41:11;;;;;;;16.02;5.50;;;9.70;99.90;;;;;;5061215;28;20204;-74
2023/05/05 02:43:39;;;;;;;11.65;5.13;;;9.70;99.90;;;;;;5064509;28;20076;-74
2023/05/05 02:46:05;;;;;;;12.32;5.03;;;9.80;99.90;;;;;;5063470;28;20099;-74
2023/05/05 02:48:31;;;;;;;13.02;5.97;;;9.80;99.90;;;;;;5052301;28;20037;-74
2023/05/05 02:50:57;;;;;;;12.48;5.35;;;9.80;99.90;;;;;;5055706;28;20094;-74
2023/05/05 02:53:26;;;;;;;10.70;5.00;;;9.80;99.90;;;;;;5057984;28;20041;-74
2023/05/05 02:56:23;;;;;;;11.65;4.80;;;9.80;99.90;;;;;;5064054;28;20247;-75
2023/05/05 02:59:00;;;;;;;12.05;5.30;;;9.80;99.90;;;;;;5062570;28;20056;-74
2023/05/05 03:01:47;;;;;;;12.07;4.93;;;9.80;99.90;;;;;;5070752;28;20095;-74
2023/05/05 03:04:28;;;;;;;10.68;4.88;;;9.90;99.90;;;;;;5062413;28;20067;-74
2023/05/05 03:06:58;;;;;;;12.38;4.82;;;9.90;99.90;;;;;;5046777;28;20037;-74
2023/05/05 03:09:35;;;;;;;15.68;5.20;;;9.90;99.90;;;;;;5064461;28;20171;-74
2023/05/05 03:12:04;;;;;;;13.80;5.10;;;10.00;99.90;;;;;;5071939;28;20159;-74
2023/05/05 03:14:35;;;;;;;12.93;4.80;;;10.00;99.90;;;;;;5057018;28;20025;-75
2023/05/05 03:17:02;;;;;;;14.68;4.88;;;10.00;99.90;;;;;;5065702;28;20271;-74
2023/05/05 03:19:29;;;;;;;14.10;5.00;;;10.00;99.90;;;;;;5062387;28;21672;-74
2023/05/05 03:21:55;;;;;;;13.85;5.43;;;10.00;99.90;;;;;;5067636;28;20037;-74
2023/05/05 03:24:21;;;;;;;10.65;4.53;;;10.00;99.90;;;;;;5060999;28;20095;-74
2023/05/05 03:26:48;;;;;;;12.07;5.20;;;10.00;99.90;;;;;;5056825;28;20067;-74
2023/05/05 03:29:14;;;;;;;12.45;4.90;;;10.00;99.90;;;;;;5050567;28;20096;-74
2023/05/05 03:31:40;;;;;;;12.98;4.93;;;10.00;99.90;;;;;;5059476;28;20037;-74
2023/05/05 03:34:06;;;;;;;12.88;4.57;;;10.00;99.90;;;;;;5069527;28;20037;-74
2023/05/05 03:36:34;;;;;;;10.77;4.45;;;10.00;99.90;;;;;;5064318;28;20128;-74
2023/05/05 03:39:00;;;;;;;13.20;4.85;;;10.00;99.90;;;;;;5060156;28;20036;-74
2023/05/05 03:41:27;;;;;;;12.75;5.13;;;10.00;99.90;;;;;;5061109;28;20282;-74
2023/05/05 03:43:52;;;;;;;11.35;4.70;;;10.00;99.90;;;;;;5065572;28;20032;-74
2023/05/05 03:46:18;;;;;;;12.60;4.93;;;10.00;99.90;;;;;;5063492;28;20296;-74
2023/05/05 03:48:44;;;;;;;11.20;4.88;;;10.00;99.90;;;;;;5054678;28;20104;-74
2023/05/05 03:51:12;;;;;;;11.18;5.00;;;10.00;99.90;;;;;;5045094;28;20131;-74
2023/05/05 03:53:37;;;;;;;13.00;4.85;;;10.00;99.90;;;;;;5058407;28;20041;-74
2023/05/05 03:56:03;;;;;;;12.57;4.95;;;10.00;99.90;;;;;;5059020;28;20048;-75
2023/05/05 03:58:29;;;;;;;11.75;4.90;;;10.00;99.90;;;;;;5070490;28;20047;-74
2023/05/05 04:00:55;;;;;;;12.20;5.28;;;10.00;99.90;;;;;;5059751;28;20223;-74
2023/05/05 04:03:21;;;;;;;10.40;4.90;;;10.00;99.90;;;;;;5075423;28;20064;-74
2023/05/05 04:05:47;;;;;;;12.35;4.82;;;10.00;99.90;;;;;;5043667;28;20029;-74
2023/05/05 04:08:13;;;;;;;10.98;4.68;;;10.10;99.90;;;;;;5047537;28;20043;-74
2023/05/05 04:10:38;;;;;;;11.18;4.85;;;10.10;99.90;;;;;;5057975;28;20044;-74
2023/05/05 04:13:04;;;;;;;10.25;4.60;;;10.10;99.90;;;;;;5055760;28;20059;-74
2023/05/05 04:15:30;;;;;;;12.15;4.85;;;10.20;99.90;;;;;;5059537;28;20045;-74
2023/05/05 04:17:55;;;;;;;10.80;4.22;;;10.20;99.90;;;;;;5057496;28;20186;-74
2023/05/05 04:20:21;;;;;;;12.32;4.43;;;10.30;99.90;;;;;;5059452;28;20033;-74
2023/05/05 04:22:47;;;;;;;11.68;4.68;;;10.30;99.90;;;;;;5063780;28;20332;-75
2023/05/05 04:25:13;;;;;;;10.52;4.43;;;10.40;99.90;;;;;;5058884;28;20104;-74
2023/05/05 04:27:38;;;;;;;9.88;4.60;;;10.40;99.90;;;;;;5067042;28;20029;-74
2023/05/05 04:30:05;;;;;;;10.15;4.90;;;10.50;99.90;;;;;;5054480;28;20049;-74
2023/05/05 04:32:31;;;;;;;10.45;4.53;;;10.50;99.90;;;;;;5051437;28;20330;-74
2023/05/05 04:34:57;;;;;;;10.52;4.50;;;10.50;99.90;;;;;;5075986;28;20025;-74
2023/05/05 04:37:24;;;;;;;11.55;4.47;;;10.50;99.90;;;;;;5080114;28;20044;-74
2023/05/05 04:39:49;;;;;;;13.27;4.85;;;10.50;99.90;;;;;;5073302;28;21571;-74
2023/05/05 04:42:15;;;;;;;13.70;4.38;;;10.50;99.90;;;;;;5066741;28;20105;-75
2023/05/05 04:44:41;;;;;;;12.35;4.57;;;10.50;99.90;;;;;;5059696;28;20035;-75
2023/05/05 04:47:06;;;;;;;14.15;5.15;;;10.50;99.90;;;;;;5047284;28;20055;-74
2023/05/05 04:49:32;;;;;;;14.00;5.15;;;10.40;99.90;;;;;;5046832;28;20354;-75
2023/05/05 04:51:58;;;;;;;13.23;5.55;;;10.40;99.90;;;;;;5042668;28;20027;-75
2023/05/05 04:54:24;;;;;;;11.07;4.82;;;10.40;99.90;;;;;;5071099;28;20354;-74
2023/05/05 04:56:49;;;;;;;12.40;4.95;;;10.30;99.90;;;;;;5073457;28;20044;-75
2023/05/05 04:59:15;;;;;;;11.15;5.07;;;10.30;99.90;;;;;;5067508;28;20238;-74
2023/05/05 05:01:41;;;;;;;12.10;4.95;;;10.20;99.90;;;;;;5075249;28;20220;-75
2023/05/05 05:04:09;;;;;;;12.00;5.28;;;10.20;99.90;;;;;;5057070;28;20039;-74
2023/05/05 05:06:35;;;;;;;14.38;5.43;;;10.10;99.90;;;;;;5076607;28;20171;-75
2023/05/05 05:09:01;;;;;;;11.38;5.15;;;10.10;99.90;;;;;;5073356;28;20204;-75
2023/05/05 05:11:27;;;;;;;11.18;5.05;;;10.10;99.90;;;;;;5044537;28;20198;-75
2023/05/05 05:13:53;;;;;;;13.15;5.75;;;10.00;99.90;;;;;;5055876;28;20024;-76
2023/05/05 05:16:19;;;;;;;13.30;5.00;;;10.00;99.90;;;;;;5055510;28;20029;-76
2023/05/05 05:18:45;;;;;;;12.52;5.70;;;10.00;99.90;;;;;;5054369;28;20024;-75
2023/05/05 05:21:10;;;;;;;14.60;5.55;;;9.90;99.90;;;;;;5049828;28;20266;-76
2023/05/05 05:23:36;;;;;;;11.70;5.50;;;9.90;99.90;;;;;;5059804;28;20047;-76
2023/05/05 05:26:04;;;;;;;11.60;5.63;;;9.90;99.90;;;;;;5057767;28;20073;-76
2023/05/05 05:28:30;;;;;;;12.43;5.72;;;9.90;99.90;;;;;;5061743;28;20120;-76
2023/05/05 05:30:56;;;;;;;13.57;5.40;;;9.80;99.90;;;;;;5051703;28;20163;-76
2023/05/05 05:33:21;;;;;;;12.07;5.30;;;9.80;99.90;;;;;;5062545;28;20067;-76
2023/05/05 05:35:47;;;;;;;11.77;5.43;;;9.80;99.90;;;;;;5067934;28;20040;-76
2023/05/05 05:38:13;;;;;;;12.88;5.07;;;9.70;99.90;;;;;;5068301;28;20096;-76
2023/05/05 05:40:39;;;;;;;12.68;5.30;;;9.70;99.90;;;;;;5036383;28;20139;-75
2023/05/05 05:43:05;;;;;;;12.02;5.60;;;9.70;99.90;;;;;;5043916;28;20044;-76
2023/05/05 05:45:30;;;;;;;11.68;5.25;;;9.80;99.90;;;;;;5072485;28;20096;-75
2023/05/05 05:47:56;;;;;;;14.10;5.70;;;9.80;99.90;;;;;;5072222;28;20167;-75
2023/05/05 05:50:23;;;;;;;12.15;5.70;;;9.70;99.90;;;;;;5077534;28;20024;-75
2023/05/05 05:52:49;;;;;;;12.05;5.47;;;9.80;99.90;;;;;;5047765;28;20112;-75
2023/05/05 05:55:14;;;;;;;13.93;5.63;;;9.80;99.90;;;;;;5057503;28;20202;-76
2023/05/05 05:57:40;;;;;;;12.43;6.10;;;9.80;99.90;;;;;;5070773;28;20039;-75
2023/05/05 06:00:06;;;;;;;13.60;5.68;;;9.90;99.90;;;;;;5052710;28;20054;-75
2023/05/05 06:02:32;;;;;;;12.40;5.70;;;9.90;99.90;;;;;;5086865;28;20048;-75
2023/05/05 06:04:58;;;;;;;11.48;6.13;;;9.90;99.90;;;;;;5049504;28;20045;-75
2023/05/05 06:07:24;;;;;;;10.60;5.93;;;10.00;99.90;;;;;;5087062;28;20070;-75
2023/05/05 06:09:50;;;;;;;13.18;5.57;;;10.20;99.90;;;;;;5070354;28;20067;-75
2023/05/05 06:12:15;;;;;;;12.10;5.38;;;10.20;99.90;;;;;;5070424;28;20063;-75
2023/05/05 06:14:41;;;;;;;13.15;5.70;;;10.30;99.90;;;;;;5067977;28;20042;-75
2023/05/05 06:17:07;;;;;;;14.85;5.88;;;10.30;99.90;;;;;;5087069;28;20070;-75
2023/05/05 06:19:33;;;;;;;13.55;5.72;;;10.40;99.90;;;;;;5063895;28;20028;-75
2023/05/05 06:21:59;;;;;;;11.80;5.85;;;10.40;99.90;;;;;;5079891;28;20067;-75
2023/05/05 06:24:25;;;;;;;12.30;6.20;;;10.50;99.90;;;;;;5066436;28;20282;-75
2023/05/05 06:26:51;;;;;;;13.40;5.53;;;10.50;99.90;;;;;;5094988;28;20325;-75
2023/05/05 06:29:16;;;;;;;14.73;5.90;;;10.50;99.90;;;;;;5070039;28;20078;-75
2023/05/05 06:31:42;;;;;;;13.43;6.07;;;10.60;99.90;;;;;;5086872;28;20024;-75
2023/05/05 06:34:08;;;;;;;12.77;5.85;;;10.70;99.90;;;;;;5066493;28;20028;-75
2023/05/05 06:36:33;;;;;;;13.15;5.75;;;10.70;99.90;;;;;;5055279;28;20063;-75
2023/05/05 06:38:59;;;;;;;14.50;6.20;;;10.80;99.90;;;;;;5062841;28;20260;-75
2023/05/05 06:41:25;;;;;;;13.30;6.07;;;10.90;99.90;;;;;;5031859;28;20033;-75
2023/05/05 06:43:50;;;;;;;13.18;6.00;;;10.90;99.90;;;;;;5048299;28;20321;-75
2023/05/05 06:46:16;;;;;;;10.88;5.60;;;11.00;99.90;;;;;;5032094;28;20032;-75
2023/05/05 06:48:42;;;;;;;13.95;6.47;;;11.10;99.90;;;;;;5030418;28;20038;-75
2023/05/05 06:51:08;;;;;;;12.18;5.70;;;11.30;99.90;;;;;;5036561;28;20103;-75
2023/05/05 06:53:34;;;;;;;11.82;5.80;;;11.60;99.90;;;;;;5048764;28;20168;-75
2023/05/05 06:56:00;;;;;;;12.50;6.03;;;11.70;99.90;;;;;;5053507;28;20115;-75
2023/05/05 06:58:26;;;;;;;14.23;6.35;;;11.70;99.90;;;;;;5035660;28;20206;-75
2023/05/05 07:00:52;;;;;;;15.30;5.82;;;11.80;99.90;;;;;;5029863;28;20056;-75
2023/05/05 07:03:18;;;;;;;14.48;6.18;;;11.80;99.90;;;;;;5026083;28;20156;-75
2023/05/05 07:05:44;;;;;;;11.68;6.25;;;11.80;99.90;;;;;;5019840;28;20030;-75
2023/05/05 07:08:10;;;;;;;12.00;5.65;;;11.80;99.90;;;;;;5044190;28;20338;-75
2023/05/05 07:10:36;;;;;;;13.30;5.97;;;11.80;99.90;;;;;;5043529;28;20041;-75
2023/05/05 07:13:01;;;;;;;12.15;5.95;;;11.80;99.90;;;;;;5023674;28;20138;-75
2023/05/05 07:15:27;;;;;;;13.07;6.10;;;11.80;99.90;;;;;;5037171;28;20064;-75
2023/05/05 07:17:53;;;;;;;12.07;6.07;;;11.70;99.90;;;;;;5021011;28;20290;-75
2023/05/05 07:20:18;;;;;;;13.55;6.60;;;11.70;99.90;;;;;;5035664;28;21409;-75
2023/05/05 07:22:44;;;;;;;13.85;5.95;;;11.90;99.90;;;;;;5040784;28;20060;-75
2023/05/05 07:25:10;;;;;;;13.27;6.65;;;12.00;99.90;;;;;;5002336;28;20037;-75
2023/05/05 07:27:37;;;;;;;13.95;6.50;;;12.30;99.90;;;;;;5030350;28;20052;-75
2023/05/05 07:30:03;;;;;;;11.15;5.85;;;12.50;99.90;;;;;;5061591;28;20033;-75
2023/05/05 07:32:29;;;;;;;11.68;5.90;;;12.70;99.90;;;;;;5029772;28;20333;-75
2023/05/05 07:34:55;;;;;;;12.32;6.28;;;12.70;99.90;;;;;;5051236;28;20041;-75
2023/05/05 07:37:21;;;;;;;14.77;6.57;;;12.80;99.90;;;;;;5068103;28;20079;-75
2023/05/05 07:39:47;;;;;;;12.18;6.07;;;12.90;99.90;;;;;;5071519;28;20272;-75
2023/05/05 07:42:13;;;;;;;12.32;6.03;;;13.00;99.90;;;;;;5051444;28;20278;-75
2023/05/05 07:44:39;;;;;;;13.15;5.38;;;13.10;99.90;;;;;;5059699;28;20024;-75
2023/05/05 07:47:05;;;;;;;11.63;5.75;;;13.20;99.90;;;;;;5044373;28;20354;-75
2023/05/05 07:49:30;;;;;;;12.10;5.85;;;13.30;99.90;;;;;;5069731;28;20063;-75
2023/05/05 07:51:56;;;;;;;13.15;6.10;;;13.40;99.90;;;;;;5062007;28;20034;-75
2023/05/05 07:54:22;;;;;;;10.85;5.45;;;13.50;99.90;;;;;;5089302;28;20059;-75
2023/05/05 07:56:47;;;;;;;12.45;6.20;;;13.70;99.90;;;;;;5038460;28;20028;-75
2023/05/05 07:59:13;;;;;;;12.57;6.03;;;13.80;99.90;;;;;;5074307;28;20088;-75
2023/05/05 08:01:39;;;;;;;12.93;6.28;;;13.90;99.90;;;;;;5056002;28;20035;-75
2023/05/05 08:04:05;;;;;;;12.20;6.43;;;14.00;99.90;;;;;;5055237;28;20039;-75
2023/05/05 08:06:31;;;;;;;11.23;5.97;;;14.10;99.90;;;;;;5064532;28;20118;-75
2023/05/05 08:08:59;;;;;;;12.73;6.20;;;14.20;99.90;;;;;;5077197;28;20273;-75
2023/05/05 08:11:25;;;;;;;12.02;6.13;;;14.30;99.90;;;;;;5063000;28;20032;-75
2023/05/05 08:13:51;;;;;;;15.05;6.22;;;14.40;99.90;;;;;;5090547;28;20067;-75
2023/05/05 08:16:17;;;;;;;11.23;6.00;;;14.40;99.90;;;;;;5061720;28;20044;-75
2023/05/05 08:18:43;;;;;;;12.75;6.25;;;14.50;99.90;;;;;;5042066;28;20020;-75
2023/05/05 08:21:10;;;;;;;14.88;6.45;;;14.60;99.90;;;;;;5087972;28;20047;-76
2023/05/05 08:23:37;;;;;;;12.70;6.85;;;14.60;99.90;;;;;;5081886;28;20041;-75
2023/05/05 08:26:05;;;;;;;14.55;6.63;;;14.70;99.90;;;;;;5075411;28;20039;-76
2023/05/05 08:28:31;;;;;;;14.20;6.50;;;14.90;99.90;;;;;;5077535;28;20032;-75
2023/05/05 08:30:58;;;;;;;11.95;6.60;;;15.00;99.90;;;;;;5049347;28;20032;-75
2023/05/05 08:33:24;;;;;;;12.13;6.43;;;15.10;99.90;;;;;;5055493;28;20039;-76
2023/05/05 08:35:49;;;;;;;13.70;6.57;;;15.20;99.90;;;;;;5073097;28;20187;-75
2023/05/05 08:38:16;;;;;;;13.43;7.47;;;15.30;99.90;;;;;;5055776;28;20112;-75
2023/05/05 08:40:43;;;;;;;15.80;7.07;;;15.40;99.90;;;;;;5077633;28;20028;-75
2023/05/05 08:43:10;;;;;;;12.45;7.05;;;15.50;99.90;;;;;;5052767;28;20297;-76
2023/05/05 08:45:38;;;;;;;12.63;6.97;;;15.50;99.90;;;;;;5080886;28;20082;-75
2023/05/05 08:48:05;;;;;;;12.07;7.07;;;15.60;99.90;;;;;;5065111;28;20040;-75
2023/05/05 08:50:31;;;;;;;13.80;6.65;;;15.80;99.90;;;;;;5080732;28;20016;-75
2023/05/05 08:53:15;;;;;;;14.43;7.07;;;16.00;99.90;;;;;;5078284;28;20028;-75
2023/05/05 08:55:49;;;;;;;12.43;7.45;;;16.10;99.90;;;;;;5069636;28;20030;-75
2023/05/05 08:58:17;;;;;;;14.63;7.70;;;16.00;99.90;;;;;;5071473;28;20035;-75
2023/05/05 09:00:45;;;;;;;15.63;8.43;;;16.10;99.90;;;;;;5078697;28;20236;-75
2023/05/05 09:03:11;;;;;;;13.40;7.40;;;16.10;99.90;;;;;;5090165;28;20054;-75
2023/05/05 09:05:37;;;;;;;14.75;8.48;;;16.20;99.90;;;;;;5089461;28;20074;-76
2023/05/05 09:08:08;;;;;;;13.48;7.82;;;16.30;99.90;;;;;;5075005;28;20028;-75
2023/05/05 09:10:35;;;;;;;15.98;8.85;;;16.40;99.90;;;;;;5049961;28;20107;-75
2023/05/05 09:13:05;;;;;;;12.80;8.10;;;16.50;99.90;;;;;;5048956;28;20037;-76
2023/05/05 09:15:32;;;;;;;14.77;8.88;;;;;;;;;;5042310;28;20052;-75
2023/05/05 09:18:01;;;;;;;17.42;8.80;;;16.60;99.90;;;;;;5070806;28;20245;-75
2023/05/05 09:20:37;;;;;;;14.48;8.55;;;16.70;99.90;;;;;;5033273;28;20086;-75
2023/05/05 09:23:12;;;;;;;13.43;8.68;;;16.80;99.90;;;;;;5069200;28;20094;-77
2023/05/05 09:25:39;;;;;;;13.40;8.30;;;16.90;99.90;;;;;;5066227;28;20085;-75
2023/05/05 09:28:12;;;;;;;17.23;9.40;;;17.00;99.90;;;;;;5069494;28;20392;-75
2023/05/05 09:30:38;;;;;;;;;;;17.00;99.90;;;;;;5076939;28;20345;-75
2023/05/05 09:33:04;;;;;;;14.77;8.88;;;17.10;99.90;;;;;;5054364;28;19931;-75
2023/05/05 09:35:51;;;;;;;15.52;8.98;;;17.30;99.90;;;;;;5065759;28;20052;-75
2023/05/05 09:38:18;;;;;;;15.10;9.48;;;17.40;99.90;;;;;;5059399;28;20059;-75
2023/05/05 09:40:53;;;;;;;18.02;9.52;;;17.50;99.90;;;;;;5075047;28;20044;-75
2023/05/05 09:43:21;;;;;;;13.05;8.23;;;17.60;99.90;;;;;;5069451;28;20337;-75
2023/05/05 09:45:48;;;;;;;14.90;9.48;;;17.70;99.90;;;;;;5047213;28;20043;-75
2023/05/05 09:48:30;;;;;;;13.15;8.55;;;17.80;99.90;;;;;;5059328;28;20038;-75
2023/05/05 09:50:57;;;;;;;14.93;9.07;;;17.90;99.90;;;;;;5070396;28;20033;-75
2023/05/05 09:53:24;;;;;;;14.60;9.68;;;18.10;99.90;;;;;;5055140;28;20052;-75
2023/05/05 09:55:58;;;;;;;42.28;15.98;;;18.20;99.90;;;;;;5068176;28;20113;-75
2023/05/05 09:58:28;;;;;;;16.08;10.35;;;18.30;99.90;;;;;;5067283;28;20028;-75
2023/05/05 10:00:57;;;;;;;15.10;9.80;;;18.40;99.90;;;;;;5066093;28;20052;-75
2023/05/05 10:03:24;;;;;;;17.27;10.15;;;18.30;99.90;;;;;;5049181;28;20125;-75
2023/05/05 10:05:51;;;;;;;14.77;9.88;;;17.60;99.90;;;;;;5039159;28;20056;-75
2023/05/05 10:08:29;;;;;;;17.23;10.68;;;18.30;99.90;;;;;;5073668;28;20282;-74
2023/05/05 10:11:05;;;;;;;15.35;10.10;;;18.60;99.90;;;;;;5069657;28;20186;-74
2023/05/05 10:13:36;;;;;;;16.35;9.65;;;18.90;99.90;;;;;;5067303;28;20062;-74
2023/05/05 10:16:03;;;;;;;14.15;9.95;;;18.80;99.90;;;;;;5064862;28;20044;-74
2023/05/05 10:18:31;;;;;;;18.33;10.15;;;18.70;99.90;;;;;;5058731;28;20033;-74
2023/05/05 10:20:58;;;;;;;18.67;10.15;;;18.60;99.90;;;;;;5070394;28;20025;-74
2023/05/05 10:23:30;;;;;;;16.73;9.45;;;18.50;99.90;;;;;;5074451;28;20288;-74
2023/05/05 10:26:06;;;;;;;16.67;10.13;;;18.40;99.90;;;;;;5069474;28;20082;-74
2023/05/05 10:28:36;;;;;;;16.63;10.50;;;18.40;99.90;;;;;;5067130;28;20029;-74
2023/05/05 10:31:04;;;;;;;14.30;10.30;;;18.60;99.90;;;;;;5070389;28;20140;-74
2023/05/05 10:33:46;;;;;;;17.75;9.90;;;18.90;99.90;;;;;;5070805;28;20027;-74
2023/05/05 10:36:13;;;;;;;15.10;10.38;;;19.20;99.90;;;;;;5067957;28;20290;-74
2023/05/05 10:38:40;;;;;;;16.10;10.40;;;19.40;99.90;;;;;;5073071;28;20075;-74
2023/05/05 10:41:08;;;;;;;16.42;10.10;;;19.60;99.90;;;;;;5068843;28;20032;-74
2023/05/05 10:43:35;;;;;;;15.43;10.00;;;19.60;99.90;;;;;;5065906;28;20143;-74
2023/05/05 10:46:01;;;;;;;15.32;9.90;;;19.70;99.90;;;;;;5067865;28;20052;-74
2023/05/05 10:48:40;;;;;;;16.70;10.38;;;19.70;99.90;;;;;;5063289;28;20055;-74
2023/05/05 10:51:16;;;;;;;15.82;10.80;;;19.60;99.90;;;;;;5063284;28;20040;-74
2023/05/05 10:54:09;;;;;;;16.80;10.30;;;19.70;99.90;;;;;;5062210;28;20044;-74
2023/05/05 10:56:39;;;;;;;18.92;10.88;;;19.80;99.90;;;;;;5067033;28;20068;-74
2023/05/05 10:59:36;;;;;;;15.60;10.90;;;20.00;99.90;;;;;;5074589;28;20289;-74
2023/05/05 11:02:23;;;;;;;19.50;11.20;;;20.30;99.90;;;;;;5074094;28;20051;-74
2023/05/05 11:05:16;;;;;;;17.58;11.02;;;20.50;99.90;;;;;;5049534;28;20056;-74
2023/05/05 11:07:48;;;;;;;15.30;10.38;;;20.50;99.90;;;;;;5047352;28;20025;-74
2023/05/05 11:10:15;;;;;;;17.17;11.40;;;20.80;99.90;;;;;;5062716;28;20105;-74
2023/05/05 11:13:01;;;;;;;16.17;10.88;;;21.00;99.90;;;;;;5065962;28;20138;-74
2023/05/05 11:15:29;;;;;;;16.08;11.18;;;21.20;99.90;;;;;;5067400;28;20508;-75
2023/05/05 11:17:59;;;;;;;18.02;11.43;;;21.30;99.90;;;;;;5085232;28;20097;-74
2023/05/05 11:20:51;;;;;;;15.75;11.40;;;21.20;99.90;;;;;;5087174;28;20041;-74
2023/05/05 11:23:20;;;;;;;16.30;11.13;;;21.40;99.90;;;;;;5068108;28;20094;-75
2023/05/05 11:25:46;;;;;;;15.48;11.38;;;21.30;99.90;;;;;;5066855;28;20024;-75
2023/05/05 11:28:13;;;;;;;16.80;11.20;;;21.20;99.90;;;;;;5066644;28;20024;-74
2023/05/05 11:30:57;;;;;;;17.05;11.75;;;21.20;99.90;;;;;;5074298;28;20326;-75
2023/05/05 11:33:30;;;;;;;16.48;12.40;;;21.10;99.90;;;;;;5081978;28;20055;-75
2023/05/05 11:36:00;;;;;;;19.00;12.38;;;20.90;99.90;;;;;;5046821;28;20103;-75
2023/05/05 11:38:34;;;;;;;16.98;11.95;;;20.70;99.90;;;;;;5069279;28;20282;-75
2023/05/05 11:41:29;;;;;;;19.98;11.90;;;20.50;99.90;;;;;;5063881;28;20419;-75
2023/05/05 11:44:11;;;;;;;19.17;12.32;;;20.40;99.90;;;;;;5044459;28;20316;-75
2023/05/05 11:46:39;;;;;;;19.48;13.10;;;20.50;99.90;;;;;;5063742;28;20025;-75
2023/05/05 11:49:07;;;;;;;18.65;12.38;;;20.60;99.90;;;;;;5062734;28;20037;-75
2023/05/05 11:51:33;;;;;;;19.88;11.90;;;20.70;99.90;;;;;;5066265;28;20096;-75
2023/05/05 11:53:58;;;;;;;19.40;12.00;;;20.90;99.90;;;;;;5056415;28;20087;-75
2023/05/05 11:56:24;;;;;;;17.92;12.20;;;20.90;99.90;;;;;;5048869;28;20171;-75
2023/05/05 11:59:16;;;;;;;19.13;12.55;;;21.00;99.90;;;;;;5047676;28;20115;-75
2023/05/05 12:01:42;;;;;;;17.52;11.15;;;21.00;99.90;;;;;;5053025;28;20048;-75
2023/05/05 12:04:12;;;;;;;17.38;11.38;;;21.00;99.90;;;;;;5063690;28;20190;-75
2023/05/05 12:06:38;;;;;;;18.02;12.20;;;21.00;99.90;;;;;;5064359;28;20078;-75
2023/05/05 12:09:05;;;;;;;18.38;11.68;;;21.00;99.90;;;;;;5058970;28;20071;-75
2023/05/05 12:11:30;;;;;;;18.73;12.63;;;20.80;99.90;;;;;;5062297;28;20048;-75
2023/05/05 12:14:09;;;;;;;18.50;12.27;;;20.90;99.90;;;;;;5057729;28;20278;-75
2023/05/05 12:16:35;;;;;;;16.08;11.18;;;20.90;99.90;;;;;;5072738;28;20082;-75
2023/05/05 12:19:09;;;;;;;17.27;11.55;;;20.80;99.90;;;;;;5052291;28;20045;-75
2023/05/05 12:21:35;;;;;;;15.02;10.00;;;20.80;99.90;;;;;;5065986;28;20044;-75
2023/05/05 12:24:01;;;;;;;15.23;8.98;;;20.70;99.90;;;;;;5069577;28;20317;-75
2023/05/05 12:26:27;;;;;;;15.40;9.07;;;20.70;99.90;;;;;;5064987;28;20025;-75
2023/05/05 12:28:54;;;;;;;16.17;10.30;;;20.70;99.90;;;;;;5063947;28;20317;-75
2023/05/05 12:31:19;;;;;;;15.93;9.18;;;20.60;99.90;;;;;;5071977;28;20044;-75
2023/05/05 12:33:46;;;;;;;15.88;9.77;;;20.80;99.90;;;;;;5053376;28;20037;-75
2023/05/05 12:36:12;;;;;;;17.17;9.52;;;21.00;99.90;;;;;;5066853;28;20333;-75
2023/05/05 12:38:38;;;;;;;15.02;9.55;;;21.00;99.90;;;;;;5062877;28;20056;-75
2023/05/05 12:41:04;;;;;;;16.17;8.82;;;21.00;99.90;;;;;;5052978;28;20029;-75
2023/05/05 12:43:32;;;;;;;14.13;8.50;;;21.10;99.90;;;;;;5050504;28;20305;-75
2023/05/05 12:46:11;;;;;;;13.70;7.60;;;21.20;99.90;;;;;;5062006;28;20020;-75